sensor_id;sensor_type;location;lat;lon;timestamp;P1;durP1;ratioP1;P2;durP2;ratioP2
18933;SDS011;9599;53.706;10.384;2023-05-29T00:01:38;18.67;;;17.17;;
18933;SDS011;9599;53.706;10.384;2023-05-29T00:04:07;19.67;;;18.07;;
18933;SDS011;9599;53.706;10.384;2023-05-29T00:06:35;20.93;;;18.87;;
18933;SDS011;9599;53.706;10.384;2023-05-29T00:09:03;18.63;;;17.20;;
18933;SDS011;9599;53.706;10.384;2023-05-29T00:11:32;20.13;;;18.70;;
18933;SDS011;9599;53.706;10.384;2023-05-29T00:14:00;20.00;;;18.60;;
18933;SDS011;9599;53.706;10.384;2023-05-29T00:16:29;20.30;;;18.97;;
18933;SDS011;9599;53.706;10.384;2023-05-29T00:18:57;23.30;;;21.27;;
18933;SDS011;9599;53.706;10.384;2023-05-29T00:21:25;20.47;;;18.90;;
18933;SDS011;9599;53.706;10.384;2023-05-29T00:23:53;21.50;;;19.70;;
18933;SDS011;9599;53.706;10.384;2023-05-29T00:26:20;23.00;;;21.50;;
18933;SDS011;9599;53.706;10.384;2023-05-29T00:28:54;21.43;;;19.43;;
18933;SDS011;9599;53.706;10.384;2023-05-29T00:31:23;22.67;;;21.07;;
18933;SDS011;9599;53.706;10.384;2023-05-29T00:33:51;21.73;;;20.20;;
18933;SDS011;9599;53.706;10.384;2023-05-29T00:36:19;23.37;;;21.57;;
18933;SDS011;9599;53.706;10.384;2023-05-29T00:38:48;24.83;;;22.80;;
18933;SDS011;9599;53.706;10.384;2023-05-29T00:41:16;22.60;;;20.80;;
18933;SDS011;9599;53.706;10.384;2023-05-29T00:43:44;22.93;;;21.20;;
18933;SDS011;9599;53.706;10.384;2023-05-29T00:46:14;22.17;;;20.27;;
18933;SDS011;9599;53.706;10.384;2023-05-29T00:48:43;25.90;;;23.70;;
18933;SDS011;9599;53.706;10.384;2023-05-29T00:51:12;23.97;;;21.97;;
18933;SDS011;9599;53.706;10.384;2023-05-29T00:53:43;26.27;;;24.03;;
18933;SDS011;9599;53.706;10.384;2023-05-29T00:56:12;24.47;;;22.57;;
18933;SDS011;9599;53.706;10.384;2023-05-29T00:58:41;24.07;;;22.13;;
18933;SDS011;9599;53.706;10.384;2023-05-29T01:01:09;24.97;;;22.83;;
18933;SDS011;9599;53.706;10.384;2023-05-29T01:03:39;23.17;;;21.37;;
18933;SDS011;9599;53.706;10.384;2023-05-29T01:06:09;22.53;;;20.63;;
18933;SDS011;9599;53.706;10.384;2023-05-29T01:08:37;21.83;;;19.87;;
18933;SDS011;9599;53.706;10.384;2023-05-29T01:11:08;22.70;;;20.10;;
18933;SDS011;9599;53.706;10.384;2023-05-29T01:13:42;22.27;;;19.90;;
18933;SDS011;9599;53.706;10.384;2023-05-29T01:16:12;20.83;;;19.23;;
18933;SDS011;9599;53.706;10.384;2023-05-29T01:18:51;22.13;;;20.47;;
18933;SDS011;9599;53.706;10.384;2023-05-29T01:21:26;22.17;;;20.10;;
18933;SDS011;9599;53.706;10.384;2023-05-29T01:24:08;22.53;;;20.20;;
18933;SDS011;9599;53.706;10.384;2023-05-29T01:26:46;24.40;;;22.13;;
18933;SDS011;9599;53.706;10.384;2023-05-29T01:29:18;23.03;;;21.07;;
18933;SDS011;9599;53.706;10.384;2023-05-29T01:31:49;22.63;;;20.60;;
18933;SDS011;9599;53.706;10.384;2023-05-29T01:34:19;22.60;;;19.83;;
18933;SDS011;9599;53.706;10.384;2023-05-29T01:36:47;22.50;;;20.63;;
18933;SDS011;9599;53.706;10.384;2023-05-29T01:39:16;23.37;;;21.27;;
18933;SDS011;9599;53.706;10.384;2023-05-29T01:41:46;25.73;;;23.57;;
18933;SDS011;9599;53.706;10.384;2023-05-29T01:44:15;25.27;;;23.10;;
18933;SDS011;9599;53.706;10.384;2023-05-29T01:46:46;26.17;;;24.03;;
18933;SDS011;9599;53.706;10.384;2023-05-29T01:49:14;27.57;;;25.30;;
18933;SDS011;9599;53.706;10.384;2023-05-29T01:51:42;26.87;;;24.57;;
18933;SDS011;9599;53.706;10.384;2023-05-29T01:54:11;29.63;;;26.83;;
18933;SDS011;9599;53.706;10.384;2023-05-29T01:56:39;27.57;;;25.37;;
18933;SDS011;9599;53.706;10.384;2023-05-29T01:59:09;27.10;;;25.00;;
18933;SDS011;9599;53.706;10.384;2023-05-29T02:01:39;28.67;;;26.33;;
18933;SDS011;9599;53.706;10.384;2023-05-29T02:04:08;27.87;;;25.63;;
18933;SDS011;9599;53.706;10.384;2023-05-29T02:06:36;28.93;;;26.73;;
18933;SDS011;9599;53.706;10.384;2023-05-29T02:09:04;30.43;;;27.83;;
18933;SDS011;9599;53.706;10.384;2023-05-29T02:11:33;29.00;;;26.90;;
18933;SDS011;9599;53.706;10.384;2023-05-29T02:14:01;29.17;;;27.17;;
18933;SDS011;9599;53.706;10.384;2023-05-29T02:16:32;31.00;;;28.17;;
18933;SDS011;9599;53.706;10.384;2023-05-29T02:19:00;28.73;;;26.50;;
18933;SDS011;9599;53.706;10.384;2023-05-29T02:21:29;30.47;;;28.00;;
18933;SDS011;9599;53.706;10.384;2023-05-29T02:24:00;31.73;;;28.87;;
18933;SDS011;9599;53.706;10.384;2023-05-29T02:26:28;28.67;;;26.07;;
18933;SDS011;9599;53.706;10.384;2023-05-29T02:28:56;29.90;;;27.23;;
18933;SDS011;9599;53.706;10.384;2023-05-29T02:31:25;30.97;;;28.37;;
18933;SDS011;9599;53.706;10.384;2023-05-29T02:33:55;30.73;;;28.40;;
18933;SDS011;9599;53.706;10.384;2023-05-29T02:36:23;28.50;;;26.43;;
18933;SDS011;9599;53.706;10.384;2023-05-29T02:38:51;30.53;;;28.10;;
18933;SDS011;9599;53.706;10.384;2023-05-29T02:41:19;31.13;;;28.43;;
18933;SDS011;9599;53.706;10.384;2023-05-29T02:43:49;29.30;;;27.40;;
18933;SDS011;9599;53.706;10.384;2023-05-29T02:46:20;29.93;;;27.37;;
18933;SDS011;9599;53.706;10.384;2023-05-29T02:48:48;27.40;;;25.27;;
18933;SDS011;9599;53.706;10.384;2023-05-29T02:51:17;28.80;;;26.37;;
18933;SDS011;9599;53.706;10.384;2023-05-29T02:53:45;26.97;;;24.97;;
18933;SDS011;9599;53.706;10.384;2023-05-29T02:56:14;27.43;;;25.27;;
18933;SDS011;9599;53.706;10.384;2023-05-29T02:58:42;27.33;;;24.83;;
18933;SDS011;9599;53.706;10.384;2023-05-29T03:01:13;23.27;;;21.20;;
18933;SDS011;9599;53.706;10.384;2023-05-29T03:03:41;26.10;;;24.00;;
18933;SDS011;9599;53.706;10.384;2023-05-29T03:06:09;23.83;;;21.93;;
18933;SDS011;9599;53.706;10.384;2023-05-29T03:08:40;22.50;;;20.70;;
18933;SDS011;9599;53.706;10.384;2023-05-29T03:11:11;23.90;;;21.73;;
18933;SDS011;9599;53.706;10.384;2023-05-29T03:13:40;25.03;;;22.60;;
18933;SDS011;9599;53.706;10.384;2023-05-29T03:16:09;24.10;;;21.93;;
18933;SDS011;9599;53.706;10.384;2023-05-29T03:18:39;22.87;;;21.03;;
18933;SDS011;9599;53.706;10.384;2023-05-29T03:21:07;23.23;;;21.20;;
18933;SDS011;9599;53.706;10.384;2023-05-29T03:23:35;22.63;;;20.70;;
18933;SDS011;9599;53.706;10.384;2023-05-29T03:26:05;22.77;;;20.57;;
18933;SDS011;9599;53.706;10.384;2023-05-29T03:28:34;23.43;;;21.47;;
18933;SDS011;9599;53.706;10.384;2023-05-29T03:31:04;23.67;;;21.40;;
18933;SDS011;9599;53.706;10.384;2023-05-29T03:33:35;22.03;;;19.93;;
18933;SDS011;9599;53.706;10.384;2023-05-29T03:36:29;22.10;;;20.17;;
18933;SDS011;9599;53.706;10.384;2023-05-29T03:38:58;23.13;;;20.93;;
18933;SDS011;9599;53.706;10.384;2023-05-29T03:41:28;22.60;;;20.23;;
18933;SDS011;9599;53.706;10.384;2023-05-29T03:43:57;23.53;;;21.37;;
18933;SDS011;9599;53.706;10.384;2023-05-29T03:46:27;23.60;;;21.30;;
18933;SDS011;9599;53.706;10.384;2023-05-29T03:48:55;25.07;;;21.53;;
18933;SDS011;9599;53.706;10.384;2023-05-29T03:51:23;24.63;;;22.47;;
18933;SDS011;9599;53.706;10.384;2023-05-29T03:53:53;23.53;;;21.30;;
18933;SDS011;9599;53.706;10.384;2023-05-29T03:56:22;23.80;;;21.57;;
18933;SDS011;9599;53.706;10.384;2023-05-29T03:58:53;23.43;;;21.23;;
18933;SDS011;9599;53.706;10.384;2023-05-29T04:01:21;22.00;;;20.07;;
18933;SDS011;9599;53.706;10.384;2023-05-29T04:03:49;22.60;;;20.53;;
18933;SDS011;9599;53.706;10.384;2023-05-29T04:06:17;25.77;;;23.27;;
18933;SDS011;9599;53.706;10.384;2023-05-29T04:08:45;22.83;;;21.07;;
18933;SDS011;9599;53.706;10.384;2023-05-29T04:11:13;25.93;;;21.73;;
18933;SDS011;9599;53.706;10.384;2023-05-29T04:13:41;23.77;;;21.53;;
18933;SDS011;9599;53.706;10.384;2023-05-29T04:16:11;24.63;;;22.60;;
18933;SDS011;9599;53.706;10.384;2023-05-29T04:18:40;24.53;;;22.20;;
18933;SDS011;9599;53.706;10.384;2023-05-29T04:21:09;24.13;;;21.67;;
18933;SDS011;9599;53.706;10.384;2023-05-29T04:23:37;24.03;;;21.57;;
18933;SDS011;9599;53.706;10.384;2023-05-29T04:26:05;27.17;;;23.00;;
18933;SDS011;9599;53.706;10.384;2023-05-29T04:28:35;24.37;;;22.17;;
18933;SDS011;9599;53.706;10.384;2023-05-29T04:31:05;24.70;;;22.10;;
18933;SDS011;9599;53.706;10.384;2023-05-29T04:33:36;24.60;;;22.13;;
18933;SDS011;9599;53.706;10.384;2023-05-29T04:36:05;23.70;;;20.97;;
18933;SDS011;9599;53.706;10.384;2023-05-29T04:38:36;24.53;;;22.17;;
18933;SDS011;9599;53.706;10.384;2023-05-29T04:41:05;24.30;;;21.93;;
18933;SDS011;9599;53.706;10.384;2023-05-29T04:43:34;25.90;;;23.57;;
18933;SDS011;9599;53.706;10.384;2023-05-29T04:46:04;26.43;;;23.77;;
18933;SDS011;9599;53.706;10.384;2023-05-29T04:48:36;26.67;;;24.63;;
18933;SDS011;9599;53.706;10.384;2023-05-29T04:51:07;28.83;;;26.37;;
18933;SDS011;9599;53.706;10.384;2023-05-29T04:53:37;28.20;;;25.63;;
18933;SDS011;9599;53.706;10.384;2023-05-29T04:56:07;27.67;;;25.17;;
18933;SDS011;9599;53.706;10.384;2023-05-29T04:58:36;29.03;;;26.40;;
18933;SDS011;9599;53.706;10.384;2023-05-29T05:01:04;28.90;;;26.40;;
18933;SDS011;9599;53.706;10.384;2023-05-29T05:03:38;29.53;;;26.93;;
18933;SDS011;9599;53.706;10.384;2023-05-29T05:06:06;28.53;;;25.90;;
18933;SDS011;9599;53.706;10.384;2023-05-29T05:08:35;25.67;;;23.30;;
18933;SDS011;9599;53.706;10.384;2023-05-29T05:11:04;26.47;;;24.10;;
18933;SDS011;9599;53.706;10.384;2023-05-29T05:13:33;25.83;;;21.83;;
18933;SDS011;9599;53.706;10.384;2023-05-29T05:16:01;25.33;;;20.67;;
18933;SDS011;9599;53.706;10.384;2023-05-29T05:18:30;25.33;;;20.53;;
18933;SDS011;9599;53.706;10.384;2023-05-29T05:21:03;24.00;;;21.63;;
18933;SDS011;9599;53.706;10.384;2023-05-29T05:23:33;23.53;;;21.53;;
18933;SDS011;9599;53.706;10.384;2023-05-29T05:26:21;23.60;;;21.30;;
18933;SDS011;9599;53.706;10.384;2023-05-29T05:28:49;25.20;;;23.27;;
18933;SDS011;9599;53.706;10.384;2023-05-29T05:31:18;28.10;;;25.70;;
18933;SDS011;9599;53.706;10.384;2023-05-29T05:33:46;29.53;;;27.10;;
18933;SDS011;9599;53.706;10.384;2023-05-29T05:36:15;28.33;;;25.70;;
18933;SDS011;9599;53.706;10.384;2023-05-29T05:38:43;29.03;;;26.53;;
18933;SDS011;9599;53.706;10.384;2023-05-29T05:41:12;29.80;;;26.70;;
18933;SDS011;9599;53.706;10.384;2023-05-29T05:43:40;29.60;;;26.70;;
18933;SDS011;9599;53.706;10.384;2023-05-29T05:46:13;26.80;;;24.60;;
18933;SDS011;9599;53.706;10.384;2023-05-29T05:48:43;27.07;;;24.77;;
18933;SDS011;9599;53.706;10.384;2023-05-29T05:51:11;25.23;;;22.97;;
18933;SDS011;9599;53.706;10.384;2023-05-29T05:53:42;22.90;;;20.30;;
18933;SDS011;9599;53.706;10.384;2023-05-29T05:56:10;21.17;;;19.17;;
18933;SDS011;9599;53.706;10.384;2023-05-29T05:58:39;20.50;;;18.70;;
18933;SDS011;9599;53.706;10.384;2023-05-29T06:01:09;21.17;;;19.27;;
18933;SDS011;9599;53.706;10.384;2023-05-29T06:03:37;21.20;;;18.80;;
18933;SDS011;9599;53.706;10.384;2023-05-29T06:06:07;19.37;;;17.37;;
18933;SDS011;9599;53.706;10.384;2023-05-29T06:08:40;19.63;;;17.63;;
18933;SDS011;9599;53.706;10.384;2023-05-29T06:11:13;20.47;;;18.43;;
18933;SDS011;9599;53.706;10.384;2023-05-29T06:13:44;22.30;;;17.77;;
18933;SDS011;9599;53.706;10.384;2023-05-29T06:16:19;21.37;;;19.17;;
18933;SDS011;9599;53.706;10.384;2023-05-29T06:18:47;21.17;;;18.90;;
18933;SDS011;9599;53.706;10.384;2023-05-29T06:21:17;22.50;;;20.30;;
18933;SDS011;9599;53.706;10.384;2023-05-29T06:23:51;22.33;;;18.23;;
18933;SDS011;9599;53.706;10.384;2023-05-29T06:26:21;25.10;;;20.53;;
18933;SDS011;9599;53.706;10.384;2023-05-29T06:28:52;21.80;;;19.13;;
18933;SDS011;9599;53.706;10.384;2023-05-29T06:31:20;23.73;;;20.30;;
18933;SDS011;9599;53.706;10.384;2023-05-29T06:33:49;22.20;;;18.87;;
18933;SDS011;9599;53.706;10.384;2023-05-29T06:36:17;22.33;;;19.90;;
18933;SDS011;9599;53.706;10.384;2023-05-29T06:38:46;22.67;;;20.27;;
18933;SDS011;9599;53.706;10.384;2023-05-29T06:41:15;24.40;;;20.97;;
18933;SDS011;9599;53.706;10.384;2023-05-29T06:43:45;24.40;;;21.90;;
18933;SDS011;9599;53.706;10.384;2023-05-29T06:46:13;24.23;;;21.60;;
18933;SDS011;9599;53.706;10.384;2023-05-29T06:48:41;24.87;;;22.37;;
18933;SDS011;9599;53.706;10.384;2023-05-29T06:51:09;24.20;;;21.83;;
18933;SDS011;9599;53.706;10.384;2023-05-29T06:53:40;23.57;;;21.13;;
18933;SDS011;9599;53.706;10.384;2023-05-29T06:56:11;24.90;;;22.70;;
18933;SDS011;9599;53.706;10.384;2023-05-29T06:58:39;22.80;;;20.60;;
18933;SDS011;9599;53.706;10.384;2023-05-29T07:01:09;25.50;;;22.87;;
18933;SDS011;9599;53.706;10.384;2023-05-29T07:03:45;24.10;;;21.63;;
18933;SDS011;9599;53.706;10.384;2023-05-29T07:06:14;25.50;;;23.07;;
18933;SDS011;9599;53.706;10.384;2023-05-29T07:08:42;23.60;;;21.30;;
18933;SDS011;9599;53.706;10.384;2023-05-29T07:11:10;24.47;;;22.47;;
18933;SDS011;9599;53.706;10.384;2023-05-29T07:13:39;24.83;;;22.67;;
18933;SDS011;9599;53.706;10.384;2023-05-29T07:16:08;25.03;;;23.00;;
18933;SDS011;9599;53.706;10.384;2023-05-29T07:18:56;24.53;;;22.33;;
18933;SDS011;9599;53.706;10.384;2023-05-29T07:21:25;24.50;;;22.00;;
18933;SDS011;9599;53.706;10.384;2023-05-29T07:23:53;22.87;;;20.83;;
18933;SDS011;9599;53.706;10.384;2023-05-29T07:26:21;23.37;;;21.47;;
18933;SDS011;9599;53.706;10.384;2023-05-29T07:28:49;23.33;;;21.23;;
18933;SDS011;9599;53.706;10.384;2023-05-29T07:31:20;22.80;;;20.37;;
18933;SDS011;9599;53.706;10.384;2023-05-29T07:33:49;24.40;;;22.40;;
18933;SDS011;9599;53.706;10.384;2023-05-29T07:36:19;25.27;;;23.23;;
18933;SDS011;9599;53.706;10.384;2023-05-29T07:38:49;24.17;;;22.17;;
18933;SDS011;9599;53.706;10.384;2023-05-29T07:41:20;24.87;;;22.77;;
18933;SDS011;9599;53.706;10.384;2023-05-29T07:43:51;23.07;;;21.10;;
18933;SDS011;9599;53.706;10.384;2023-05-29T07:46:20;23.53;;;21.23;;
18933;SDS011;9599;53.706;10.384;2023-05-29T07:48:54;23.90;;;21.67;;
18933;SDS011;9599;53.706;10.384;2023-05-29T07:51:22;24.67;;;22.43;;
18933;SDS011;9599;53.706;10.384;2023-05-29T07:53:51;24.53;;;22.27;;
18933;SDS011;9599;53.706;10.384;2023-05-29T07:56:19;23.60;;;21.60;;
18933;SDS011;9599;53.706;10.384;2023-05-29T07:58:47;23.47;;;21.67;;
18933;SDS011;9599;53.706;10.384;2023-05-29T08:01:15;27.10;;;24.77;;
18933;SDS011;9599;53.706;10.384;2023-05-29T08:03:45;27.67;;;24.80;;
18933;SDS011;9599;53.706;10.384;2023-05-29T08:06:33;28.40;;;25.77;;
18933;SDS011;9599;53.706;10.384;2023-05-29T08:09:03;28.77;;;26.57;;
18933;SDS011;9599;53.706;10.384;2023-05-29T08:11:31;28.40;;;25.73;;
18933;SDS011;9599;53.706;10.384;2023-05-29T08:13:59;27.97;;;25.67;;
18933;SDS011;9599;53.706;10.384;2023-05-29T08:16:27;28.13;;;25.70;;
18933;SDS011;9599;53.706;10.384;2023-05-29T08:18:57;28.07;;;25.77;;
18933;SDS011;9599;53.706;10.384;2023-05-29T08:21:25;30.57;;;27.87;;
18933;SDS011;9599;53.706;10.384;2023-05-29T08:23:53;28.97;;;26.63;;
18933;SDS011;9599;53.706;10.384;2023-05-29T08:26:21;28.07;;;25.93;;
18933;SDS011;9599;53.706;10.384;2023-05-29T08:28:49;27.93;;;25.50;;
18933;SDS011;9599;53.706;10.384;2023-05-29T08:31:17;24.73;;;22.83;;
18933;SDS011;9599;53.706;10.384;2023-05-29T08:33:45;28.33;;;25.97;;
18933;SDS011;9599;53.706;10.384;2023-05-29T08:36:15;28.43;;;26.43;;
18933;SDS011;9599;53.706;10.384;2023-05-29T08:38:43;28.90;;;26.70;;
18933;SDS011;9599;53.706;10.384;2023-05-29T08:41:12;26.97;;;24.27;;
18933;SDS011;9599;53.706;10.384;2023-05-29T08:43:44;26.63;;;24.53;;
18933;SDS011;9599;53.706;10.384;2023-05-29T08:46:14;26.00;;;23.73;;
18933;SDS011;9599;53.706;10.384;2023-05-29T08:48:46;26.63;;;24.60;;
18933;SDS011;9599;53.706;10.384;2023-05-29T08:51:18;27.27;;;24.97;;
18933;SDS011;9599;53.706;10.384;2023-05-29T08:53:47;26.27;;;24.33;;
18933;SDS011;9599;53.706;10.384;2023-05-29T08:56:16;26.73;;;24.30;;
18933;SDS011;9599;53.706;10.384;2023-05-29T08:59:00;27.70;;;25.40;;
18933;SDS011;9599;53.706;10.384;2023-05-29T09:01:33;27.47;;;25.13;;
18933;SDS011;9599;53.706;10.384;2023-05-29T09:04:03;24.33;;;22.27;;
18933;SDS011;9599;53.706;10.384;2023-05-29T09:06:32;25.93;;;23.83;;
18933;SDS011;9599;53.706;10.384;2023-05-29T09:09:00;25.63;;;24.00;;
18933;SDS011;9599;53.706;10.384;2023-05-29T09:11:28;27.03;;;24.83;;
18933;SDS011;9599;53.706;10.384;2023-05-29T09:13:56;27.30;;;25.13;;
18933;SDS011;9599;53.706;10.384;2023-05-29T09:16:25;27.10;;;25.20;;
18933;SDS011;9599;53.706;10.384;2023-05-29T09:18:57;27.50;;;24.87;;
18933;SDS011;9599;53.706;10.384;2023-05-29T09:21:34;26.50;;;24.70;;
18933;SDS011;9599;53.706;10.384;2023-05-29T09:24:03;25.63;;;23.70;;
18933;SDS011;9599;53.706;10.384;2023-05-29T09:26:31;24.97;;;23.07;;
18933;SDS011;9599;53.706;10.384;2023-05-29T09:29:00;26.00;;;24.13;;
18933;SDS011;9599;53.706;10.384;2023-05-29T09:31:30;26.33;;;24.27;;
18933;SDS011;9599;53.706;10.384;2023-05-29T09:33:59;26.00;;;24.00;;
18933;SDS011;9599;53.706;10.384;2023-05-29T09:36:29;26.00;;;23.93;;
18933;SDS011;9599;53.706;10.384;2023-05-29T09:39:02;28.00;;;26.00;;
18933;SDS011;9599;53.706;10.384;2023-05-29T09:41:42;28.00;;;25.73;;
18933;SDS011;9599;53.706;10.384;2023-05-29T09:44:12;28.80;;;26.40;;
18933;SDS011;9599;53.706;10.384;2023-05-29T09:46:40;27.43;;;25.23;;
18933;SDS011;9599;53.706;10.384;2023-05-29T09:49:11;27.30;;;25.20;;
18933;SDS011;9599;53.706;10.384;2023-05-29T09:51:40;29.47;;;27.07;;
18933;SDS011;9599;53.706;10.384;2023-05-29T09:54:15;27.27;;;25.07;;
18933;SDS011;9599;53.706;10.384;2023-05-29T09:56:44;27.70;;;25.80;;
18933;SDS011;9599;53.706;10.384;2023-05-29T09:59:13;27.27;;;25.23;;
18933;SDS011;9599;53.706;10.384;2023-05-29T10:01:46;28.53;;;26.43;;
18933;SDS011;9599;53.706;10.384;2023-05-29T10:04:15;28.60;;;26.80;;
18933;SDS011;9599;53.706;10.384;2023-05-29T10:06:44;29.37;;;26.93;;
18933;SDS011;9599;53.706;10.384;2023-05-29T10:09:16;29.90;;;27.70;;
18933;SDS011;9599;53.706;10.384;2023-05-29T10:11:47;29.30;;;27.27;;
18933;SDS011;9599;53.706;10.384;2023-05-29T10:14:17;29.40;;;27.13;;
18933;SDS011;9599;53.706;10.384;2023-05-29T10:16:47;27.80;;;25.87;;
18933;SDS011;9599;53.706;10.384;2023-05-29T10:19:18;28.33;;;26.50;;
18933;SDS011;9599;53.706;10.384;2023-05-29T10:21:51;27.87;;;26.07;;
18933;SDS011;9599;53.706;10.384;2023-05-29T10:24:23;29.17;;;26.97;;
18933;SDS011;9599;53.706;10.384;2023-05-29T10:26:53;30.27;;;28.13;;
18933;SDS011;9599;53.706;10.384;2023-05-29T10:29:25;28.37;;;26.17;;
18933;SDS011;9599;53.706;10.384;2023-05-29T10:32:03;29.80;;;27.80;;
18933;SDS011;9599;53.706;10.384;2023-05-29T10:34:37;27.63;;;25.70;;
18933;SDS011;9599;53.706;10.384;2023-05-29T10:37:15;27.40;;;25.67;;
18933;SDS011;9599;53.706;10.384;2023-05-29T10:39:50;28.73;;;26.93;;
18933;SDS011;9599;53.706;10.384;2023-05-29T10:51:05;28.80;;;26.80;;
18933;SDS011;9599;53.706;10.384;2023-05-29T10:53:34;29.90;;;27.90;;
18933;SDS011;9599;53.706;10.384;2023-05-29T10:56:16;31.30;;;29.37;;
18933;SDS011;9599;53.706;10.384;2023-05-29T10:58:52;28.87;;;26.97;;
18933;SDS011;9599;53.706;10.384;2023-05-29T11:01:22;28.17;;;26.07;;
18933;SDS011;9599;53.706;10.384;2023-05-29T11:03:51;28.33;;;26.33;;
18933;SDS011;9599;53.706;10.384;2023-05-29T11:06:21;29.60;;;27.70;;
18933;SDS011;9599;53.706;10.384;2023-05-29T11:08:53;30.57;;;28.57;;
18933;SDS011;9599;53.706;10.384;2023-05-29T11:11:30;30.20;;;28.27;;
18933;SDS011;9599;53.706;10.384;2023-05-29T11:14:01;30.30;;;28.10;;
18933;SDS011;9599;53.706;10.384;2023-05-29T11:16:37;30.57;;;28.50;;
18933;SDS011;9599;53.706;10.384;2023-05-29T11:19:06;29.27;;;27.43;;
18933;SDS011;9599;53.706;10.384;2023-05-29T11:21:49;31.07;;;29.07;;
18933;SDS011;9599;53.706;10.384;2023-05-29T11:24:37;31.03;;;29.03;;
18933;SDS011;9599;53.706;10.384;2023-05-29T11:27:08;31.60;;;29.27;;
18933;SDS011;9599;53.706;10.384;2023-05-29T11:29:38;29.53;;;27.57;;
18933;SDS011;9599;53.706;10.384;2023-05-29T11:32:06;30.87;;;28.97;;
18933;SDS011;9599;53.706;10.384;2023-05-29T11:34:41;30.13;;;28.17;;
18933;SDS011;9599;53.706;10.384;2023-05-29T11:37:11;32.90;;;30.87;;
18933;SDS011;9599;53.706;10.384;2023-05-29T11:39:39;29.70;;;27.90;;
18933;SDS011;9599;53.706;10.384;2023-05-29T11:42:11;29.53;;;27.83;;
18933;SDS011;9599;53.706;10.384;2023-05-29T11:44:39;31.40;;;29.30;;
18933;SDS011;9599;53.706;10.384;2023-05-29T11:47:08;30.07;;;28.13;;
18933;SDS011;9599;53.706;10.384;2023-05-29T11:49:36;29.30;;;27.47;;
18933;SDS011;9599;53.706;10.384;2023-05-29T11:52:05;30.17;;;28.20;;
18933;SDS011;9599;53.706;10.384;2023-05-29T11:54:43;31.40;;;29.40;;
18933;SDS011;9599;53.706;10.384;2023-05-29T11:57:20;29.83;;;28.03;;
18933;SDS011;9599;53.706;10.384;2023-05-29T11:59:49;31.63;;;29.67;;
18933;SDS011;9599;53.706;10.384;2023-05-29T12:02:18;28.97;;;27.13;;
18933;SDS011;9599;53.706;10.384;2023-05-29T12:04:59;30.67;;;28.70;;
18933;SDS011;9599;53.706;10.384;2023-05-29T12:07:27;31.30;;;29.30;;
18933;SDS011;9599;53.706;10.384;2023-05-29T12:09:55;27.30;;;25.60;;
18933;SDS011;9599;53.706;10.384;2023-05-29T12:12:26;29.93;;;28.03;;
18933;SDS011;9599;53.706;10.384;2023-05-29T12:14:55;31.93;;;29.77;;
18933;SDS011;9599;53.706;10.384;2023-05-29T12:17:24;30.03;;;28.03;;
18933;SDS011;9599;53.706;10.384;2023-05-29T12:19:55;30.10;;;28.13;;
18933;SDS011;9599;53.706;10.384;2023-05-29T12:22:30;31.53;;;29.53;;
18933;SDS011;9599;53.706;10.384;2023-05-29T12:25:03;31.73;;;29.63;;
18933;SDS011;9599;53.706;10.384;2023-05-29T12:27:34;30.70;;;28.83;;
18933;SDS011;9599;53.706;10.384;2023-05-29T12:30:07;31.37;;;29.47;;
18933;SDS011;9599;53.706;10.384;2023-05-29T12:32:43;29.97;;;28.03;;
18933;SDS011;9599;53.706;10.384;2023-05-29T12:35:13;29.63;;;27.53;;
18933;SDS011;9599;53.706;10.384;2023-05-29T12:37:43;31.43;;;29.37;;
18933;SDS011;9599;53.706;10.384;2023-05-29T12:40:16;31.17;;;29.27;;
18933;SDS011;9599;53.706;10.384;2023-05-29T12:42:47;31.03;;;29.20;;
18933;SDS011;9599;53.706;10.384;2023-05-29T12:45:17;30.00;;;27.93;;
18933;SDS011;9599;53.706;10.384;2023-05-29T12:47:45;30.93;;;29.03;;
18933;SDS011;9599;53.706;10.384;2023-05-29T12:50:21;28.67;;;26.70;;
18933;SDS011;9599;53.706;10.384;2023-05-29T12:52:58;29.03;;;27.33;;
18933;SDS011;9599;53.706;10.384;2023-05-29T12:55:27;29.73;;;27.93;;
18933;SDS011;9599;53.706;10.384;2023-05-29T12:57:57;31.27;;;29.20;;
18933;SDS011;9599;53.706;10.384;2023-05-29T13:00:25;30.87;;;28.97;;
18933;SDS011;9599;53.706;10.384;2023-05-29T13:02:53;29.57;;;27.57;;
18933;SDS011;9599;53.706;10.384;2023-05-29T13:05:21;30.17;;;28.30;;
18933;SDS011;9599;53.706;10.384;2023-05-29T13:07:50;31.37;;;29.37;;
18933;SDS011;9599;53.706;10.384;2023-05-29T13:10:18;29.37;;;27.53;;
18933;SDS011;9599;53.706;10.384;2023-05-29T13:12:47;30.67;;;28.67;;
18933;SDS011;9599;53.706;10.384;2023-05-29T13:15:21;30.00;;;28.13;;
18933;SDS011;9599;53.706;10.384;2023-05-29T13:17:50;31.63;;;29.67;;
18933;SDS011;9599;53.706;10.384;2023-05-29T13:20:19;30.57;;;28.67;;
18933;SDS011;9599;53.706;10.384;2023-05-29T13:22:48;32.20;;;30.27;;
18933;SDS011;9599;53.706;10.384;2023-05-29T13:25:16;31.30;;;29.50;;
18933;SDS011;9599;53.706;10.384;2023-05-29T13:27:47;31.67;;;29.53;;
18933;SDS011;9599;53.706;10.384;2023-05-29T13:30:16;28.53;;;26.67;;
18933;SDS011;9599;53.706;10.384;2023-05-29T13:32:45;30.03;;;28.03;;
18933;SDS011;9599;53.706;10.384;2023-05-29T13:35:13;29.53;;;27.83;;
18933;SDS011;9599;53.706;10.384;2023-05-29T13:37:41;30.33;;;28.43;;
18933;SDS011;9599;53.706;10.384;2023-05-29T13:40:10;30.10;;;28.20;;
18933;SDS011;9599;53.706;10.384;2023-05-29T13:42:39;30.47;;;28.67;;
18933;SDS011;9599;53.706;10.384;2023-05-29T13:45:08;28.27;;;26.40;;
18933;SDS011;9599;53.706;10.384;2023-05-29T13:47:38;32.57;;;30.33;;
18933;SDS011;9599;53.706;10.384;2023-05-29T13:50:07;29.47;;;27.57;;
18933;SDS011;9599;53.706;10.384;2023-05-29T13:52:36;29.53;;;27.53;;
18933;SDS011;9599;53.706;10.384;2023-05-29T13:55:04;30.23;;;28.03;;
18933;SDS011;9599;53.706;10.384;2023-05-29T13:57:35;30.10;;;28.27;;
18933;SDS011;9599;53.706;10.384;2023-05-29T14:00:03;29.07;;;27.07;;
18933;SDS011;9599;53.706;10.384;2023-05-29T14:02:32;29.90;;;28.00;;
18933;SDS011;9599;53.706;10.384;2023-05-29T14:05:01;30.63;;;28.60;;
18933;SDS011;9599;53.706;10.384;2023-05-29T14:07:30;30.27;;;28.23;;
18933;SDS011;9599;53.706;10.384;2023-05-29T14:09:58;29.37;;;27.57;;
18933;SDS011;9599;53.706;10.384;2023-05-29T14:12:26;28.93;;;27.00;;
18933;SDS011;9599;53.706;10.384;2023-05-29T14:14:54;33.47;;;31.07;;
18933;SDS011;9599;53.706;10.384;2023-05-29T14:17:22;32.13;;;29.67;;
18933;SDS011;9599;53.706;10.384;2023-05-29T14:19:49;30.87;;;29.17;;
18933;SDS011;9599;53.706;10.384;2023-05-29T14:22:19;31.67;;;29.37;;
18933;SDS011;9599;53.706;10.384;2023-05-29T14:24:48;31.90;;;29.87;;
18933;SDS011;9599;53.706;10.384;2023-05-29T14:27:16;31.60;;;29.40;;
18933;SDS011;9599;53.706;10.384;2023-05-29T14:29:47;30.40;;;28.43;;
18933;SDS011;9599;53.706;10.384;2023-05-29T14:32:15;31.83;;;29.53;;
18933;SDS011;9599;53.706;10.384;2023-05-29T14:34:43;38.17;;;35.23;;
18933;SDS011;9599;53.706;10.384;2023-05-29T14:37:10;35.23;;;33.03;;
18933;SDS011;9599;53.706;10.384;2023-05-29T14:39:38;29.60;;;27.70;;
18933;SDS011;9599;53.706;10.384;2023-05-29T14:42:08;29.27;;;27.57;;
18933;SDS011;9599;53.706;10.384;2023-05-29T14:44:36;27.30;;;25.63;;
18933;SDS011;9599;53.706;10.384;2023-05-29T14:47:04;32.47;;;30.17;;